sensor_id;sensor_type;location;lat;lon;timestamp;P1;durP1;ratioP1;P2;durP2;ratioP2
64085;SDS011;50333;47.436;21.390;2022-11-25T00:01:23;16.77;;;11.30;;
64085;SDS011;50333;47.436;21.390;2022-11-25T00:03:55;19.50;;;11.18;;
64085;SDS011;50333;47.436;21.390;2022-11-25T00:06:24;15.70;;;11.00;;
64085;SDS011;50333;47.436;21.390;2022-11-25T00:09:01;16.00;;;11.12;;
64085;SDS011;50333;47.436;21.390;2022-11-25T00:11:47;13.32;;;10.43;;
64085;SDS011;50333;47.436;21.390;2022-11-25T00:14:14;16.12;;;11.02;;
64085;SDS011;50333;47.436;21.390;2022-11-25T00:16:42;15.35;;;11.18;;
64085;SDS011;50333;47.436;21.390;2022-11-25T00:19:15;15.20;;;10.95;;
64085;SDS011;50333;47.436;21.390;2022-11-25T00:21:43;14.90;;;10.63;;
64085;SDS011;50333;47.436;21.390;2022-11-25T00:24:11;15.00;;;11.02;;
64085;SDS011;50333;47.436;21.390;2022-11-25T00:26:42;17.50;;;11.35;;
64085;SDS011;50333;47.436;21.390;2022-11-25T00:29:10;15.35;;;10.43;;
64085;SDS011;50333;47.436;21.390;2022-11-25T00:31:40;15.52;;;10.77;;
64085;SDS011;50333;47.436;21.390;2022-11-25T00:34:10;19.02;;;11.65;;
64085;SDS011;50333;47.436;21.390;2022-11-25T00:36:39;17.85;;;10.30;;
64085;SDS011;50333;47.436;21.390;2022-11-25T00:39:14;16.27;;;11.10;;
64085;SDS011;50333;47.436;21.390;2022-11-25T00:41:43;16.25;;;11.57;;
64085;SDS011;50333;47.436;21.390;2022-11-25T00:44:30;15.93;;;10.50;;
64085;SDS011;50333;47.436;21.390;2022-11-25T00:47:09;16.62;;;10.27;;
64085;SDS011;50333;47.436;21.390;2022-11-25T00:49:44;15.20;;;9.90;;
64085;SDS011;50333;47.436;21.390;2022-11-25T00:52:14;18.27;;;11.50;;
64085;SDS011;50333;47.436;21.390;2022-11-25T00:54:45;14.80;;;10.85;;
64085;SDS011;50333;47.436;21.390;2022-11-25T00:57:14;14.93;;;10.55;;
64085;SDS011;50333;47.436;21.390;2022-11-25T00:59:44;16.35;;;10.98;;
64085;SDS011;50333;47.436;21.390;2022-11-25T01:02:11;18.92;;;10.68;;
64085;SDS011;50333;47.436;21.390;2022-11-25T01:04:43;15.55;;;10.98;;
64085;SDS011;50333;47.436;21.390;2022-11-25T01:07:15;17.27;;;11.60;;
64085;SDS011;50333;47.436;21.390;2022-11-25T01:09:47;21.85;;;11.85;;
64085;SDS011;50333;47.436;21.390;2022-11-25T01:12:15;17.80;;;10.63;;
64085;SDS011;50333;47.436;21.390;2022-11-25T01:14:43;14.07;;;10.07;;
64085;SDS011;50333;47.436;21.390;2022-11-25T01:17:13;17.15;;;10.60;;
64085;SDS011;50333;47.436;21.390;2022-11-25T01:19:41;17.17;;;10.50;;
64085;SDS011;50333;47.436;21.390;2022-11-25T01:22:09;15.93;;;10.55;;
64085;SDS011;50333;47.436;21.390;2022-11-25T01:24:37;17.95;;;10.98;;
64085;SDS011;50333;47.436;21.390;2022-11-25T01:27:05;16.70;;;10.10;;
64085;SDS011;50333;47.436;21.390;2022-11-25T01:29:33;15.40;;;10.82;;
64085;SDS011;50333;47.436;21.390;2022-11-25T01:32:00;13.13;;;10.00;;
64085;SDS011;50333;47.436;21.390;2022-11-25T01:34:28;19.92;;;9.85;;
64085;SDS011;50333;47.436;21.390;2022-11-25T01:36:58;15.68;;;9.75;;
64085;SDS011;50333;47.436;21.390;2022-11-25T01:39:26;17.45;;;9.93;;
64085;SDS011;50333;47.436;21.390;2022-11-25T01:41:59;16.20;;;10.38;;
64085;SDS011;50333;47.436;21.390;2022-11-25T01:44:28;14.80;;;9.82;;
64085;SDS011;50333;47.436;21.390;2022-11-25T01:49:34;14.23;;;9.93;;
64085;SDS011;50333;47.436;21.390;2022-11-25T01:55:09;15.90;;;10.27;;
64085;SDS011;50333;47.436;21.390;2022-11-25T01:57:44;15.48;;;10.50;;
64085;SDS011;50333;47.436;21.390;2022-11-25T02:00:16;15.57;;;10.27;;
64085;SDS011;50333;47.436;21.390;2022-11-25T02:02:47;16.45;;;10.40;;
64085;SDS011;50333;47.436;21.390;2022-11-25T02:05:18;14.18;;;9.73;;
64085;SDS011;50333;47.436;21.390;2022-11-25T02:07:50;15.80;;;9.88;;
64085;SDS011;50333;47.436;21.390;2022-11-25T02:10:21;14.20;;;10.02;;
64085;SDS011;50333;47.436;21.390;2022-11-25T02:12:52;15.77;;;11.57;;
64085;SDS011;50333;47.436;21.390;2022-11-25T02:15:21;12.25;;;9.18;;
64085;SDS011;50333;47.436;21.390;2022-11-25T02:17:49;13.07;;;9.25;;
64085;SDS011;50333;47.436;21.390;2022-11-25T02:20:18;13.23;;;9.77;;
64085;SDS011;50333;47.436;21.390;2022-11-25T02:22:52;12.25;;;8.90;;
64085;SDS011;50333;47.436;21.390;2022-11-25T02:25:30;14.52;;;9.38;;
64085;SDS011;50333;47.436;21.390;2022-11-25T02:30:36;13.93;;;9.35;;
64085;SDS011;50333;47.436;21.390;2022-11-25T02:33:03;14.40;;;9.68;;
64085;SDS011;50333;47.436;21.390;2022-11-25T02:35:33;12.93;;;9.15;;
64085;SDS011;50333;47.436;21.390;2022-11-25T02:38:14;15.63;;;9.82;;
64085;SDS011;50333;47.436;21.390;2022-11-25T02:43:23;15.98;;;10.52;;
64085;SDS011;50333;47.436;21.390;2022-11-25T02:45:56;14.27;;;9.52;;
64085;SDS011;50333;47.436;21.390;2022-11-25T02:48:25;14.82;;;9.38;;
64085;SDS011;50333;47.436;21.390;2022-11-25T02:51:14;16.60;;;10.15;;
64085;SDS011;50333;47.436;21.390;2022-11-25T02:53:44;12.90;;;9.52;;
64085;SDS011;50333;47.436;21.390;2022-11-25T02:56:13;13.75;;;9.35;;
64085;SDS011;50333;47.436;21.390;2022-11-25T02:58:41;13.38;;;9.45;;
64085;SDS011;50333;47.436;21.390;2022-11-25T03:01:10;14.70;;;9.48;;
64085;SDS011;50333;47.436;21.390;2022-11-25T03:03:38;13.18;;;8.90;;
64085;SDS011;50333;47.436;21.390;2022-11-25T03:06:05;14.65;;;9.55;;
64085;SDS011;50333;47.436;21.390;2022-11-25T03:08:35;12.37;;;9.35;;
64085;SDS011;50333;47.436;21.390;2022-11-25T03:11:05;14.43;;;8.95;;
64085;SDS011;50333;47.436;21.390;2022-11-25T03:13:33;17.12;;;9.60;;
64085;SDS011;50333;47.436;21.390;2022-11-25T03:16:01;13.98;;;9.15;;
64085;SDS011;50333;47.436;21.390;2022-11-25T03:18:29;15.18;;;9.15;;
64085;SDS011;50333;47.436;21.390;2022-11-25T03:20:58;15.73;;;10.13;;
64085;SDS011;50333;47.436;21.390;2022-11-25T03:23:26;15.15;;;10.32;;
64085;SDS011;50333;47.436;21.390;2022-11-25T03:25:55;16.17;;;10.48;;
64085;SDS011;50333;47.436;21.390;2022-11-25T03:28:23;20.90;;;11.50;;
64085;SDS011;50333;47.436;21.390;2022-11-25T03:30:51;18.12;;;10.52;;
64085;SDS011;50333;47.436;21.390;2022-11-25T03:33:19;17.80;;;10.25;;
64085;SDS011;50333;47.436;21.390;2022-11-25T03:35:46;13.05;;;9.60;;
64085;SDS011;50333;47.436;21.390;2022-11-25T03:38:16;13.68;;;9.68;;
64085;SDS011;50333;47.436;21.390;2022-11-25T03:40:43;13.70;;;9.63;;
64085;SDS011;50333;47.436;21.390;2022-11-25T03:43:13;13.32;;;9.75;;
64085;SDS011;50333;47.436;21.390;2022-11-25T03:45:41;13.52;;;10.00;;
64085;SDS011;50333;47.436;21.390;2022-11-25T03:48:09;14.57;;;10.68;;
64085;SDS011;50333;47.436;21.390;2022-11-25T03:50:37;14.85;;;10.70;;
64085;SDS011;50333;47.436;21.390;2022-11-25T03:53:05;15.73;;;10.10;;
64085;SDS011;50333;47.436;21.390;2022-11-25T03:55:34;14.93;;;10.65;;
64085;SDS011;50333;47.436;21.390;2022-11-25T03:58:02;15.70;;;10.40;;
64085;SDS011;50333;47.436;21.390;2022-11-25T04:00:31;14.93;;;10.70;;
64085;SDS011;50333;47.436;21.390;2022-11-25T04:03:00;13.05;;;9.68;;
64085;SDS011;50333;47.436;21.390;2022-11-25T04:05:29;15.95;;;11.12;;
64085;SDS011;50333;47.436;21.390;2022-11-25T04:07:57;15.40;;;11.00;;
64085;SDS011;50333;47.436;21.390;2022-11-25T04:10:25;16.62;;;10.75;;
64085;SDS011;50333;47.436;21.390;2022-11-25T04:12:53;15.90;;;10.82;;
64085;SDS011;50333;47.436;21.390;2022-11-25T04:15:21;20.77;;;11.43;;
64085;SDS011;50333;47.436;21.390;2022-11-25T04:17:49;15.43;;;11.68;;
64085;SDS011;50333;47.436;21.390;2022-11-25T04:20:17;15.25;;;10.40;;
64085;SDS011;50333;47.436;21.390;2022-11-25T04:22:45;17.08;;;10.73;;
64085;SDS011;50333;47.436;21.390;2022-11-25T04:25:13;17.55;;;10.23;;
64085;SDS011;50333;47.436;21.390;2022-11-25T04:27:41;15.10;;;10.80;;
64085;SDS011;50333;47.436;21.390;2022-11-25T04:30:09;14.15;;;10.35;;
64085;SDS011;50333;47.436;21.390;2022-11-25T04:32:39;18.48;;;10.85;;
64085;SDS011;50333;47.436;21.390;2022-11-25T04:35:07;14.68;;;10.50;;
64085;SDS011;50333;47.436;21.390;2022-11-25T04:37:35;14.27;;;10.23;;
64085;SDS011;50333;47.436;21.390;2022-11-25T04:40:03;15.43;;;11.10;;
64085;SDS011;50333;47.436;21.390;2022-11-25T04:42:32;15.73;;;10.50;;
64085;SDS011;50333;47.436;21.390;2022-11-25T04:45:06;13.45;;;10.45;;
64085;SDS011;50333;47.436;21.390;2022-11-25T04:47:50;16.12;;;10.82;;
64085;SDS011;50333;47.436;21.390;2022-11-25T04:50:19;14.73;;;11.00;;
64085;SDS011;50333;47.436;21.390;2022-11-25T04:52:49;15.18;;;10.82;;
64085;SDS011;50333;47.436;21.390;2022-11-25T04:55:16;14.57;;;11.10;;
64085;SDS011;50333;47.436;21.390;2022-11-25T04:57:45;18.00;;;11.10;;
64085;SDS011;50333;47.436;21.390;2022-11-25T05:00:13;13.95;;;10.13;;
64085;SDS011;50333;47.436;21.390;2022-11-25T05:02:41;16.05;;;10.93;;
64085;SDS011;50333;47.436;21.390;2022-11-25T05:05:09;15.65;;;10.65;;
64085;SDS011;50333;47.436;21.390;2022-11-25T05:07:38;14.73;;;10.52;;
64085;SDS011;50333;47.436;21.390;2022-11-25T05:10:06;15.25;;;10.02;;
64085;SDS011;50333;47.436;21.390;2022-11-25T05:12:35;12.07;;;9.52;;
64085;SDS011;50333;47.436;21.390;2022-11-25T05:15:04;12.68;;;8.63;;
64085;SDS011;50333;47.436;21.390;2022-11-25T05:17:33;14.13;;;8.90;;
64085;SDS011;50333;47.436;21.390;2022-11-25T05:20:12;11.45;;;8.80;;
64085;SDS011;50333;47.436;21.390;2022-11-25T05:22:40;11.30;;;7.82;;
64085;SDS011;50333;47.436;21.390;2022-11-25T05:25:08;12.07;;;8.50;;
64085;SDS011;50333;47.436;21.390;2022-11-25T05:27:37;11.48;;;7.97;;
64085;SDS011;50333;47.436;21.390;2022-11-25T05:30:05;13.73;;;8.65;;
64085;SDS011;50333;47.436;21.390;2022-11-25T05:32:34;11.40;;;9.00;;
64085;SDS011;50333;47.436;21.390;2022-11-25T05:35:03;10.88;;;7.78;;
64085;SDS011;50333;47.436;21.390;2022-11-25T05:37:32;11.25;;;8.07;;
64085;SDS011;50333;47.436;21.390;2022-11-25T05:40:01;14.73;;;8.15;;
64085;SDS011;50333;47.436;21.390;2022-11-25T05:42:30;9.85;;;8.07;;
64085;SDS011;50333;47.436;21.390;2022-11-25T05:44:58;11.48;;;7.72;;
64085;SDS011;50333;47.436;21.390;2022-11-25T05:47:27;10.52;;;7.47;;
64085;SDS011;50333;47.436;21.390;2022-11-25T05:49:56;11.00;;;7.93;;
64085;SDS011;50333;47.436;21.390;2022-11-25T05:52:23;11.07;;;7.35;;
64085;SDS011;50333;47.436;21.390;2022-11-25T05:54:52;10.93;;;7.40;;
64085;SDS011;50333;47.436;21.390;2022-11-25T05:57:23;11.48;;;8.05;;
64085;SDS011;50333;47.436;21.390;2022-11-25T05:59:52;11.88;;;7.80;;
64085;SDS011;50333;47.436;21.390;2022-11-25T06:02:20;13.13;;;8.13;;
64085;SDS011;50333;47.436;21.390;2022-11-25T06:04:50;11.77;;;8.27;;
64085;SDS011;50333;47.436;21.390;2022-11-25T06:07:17;11.45;;;8.23;;
64085;SDS011;50333;47.436;21.390;2022-11-25T06:09:45;11.75;;;8.35;;
64085;SDS011;50333;47.436;21.390;2022-11-25T06:12:13;12.23;;;8.43;;
64085;SDS011;50333;47.436;21.390;2022-11-25T06:14:41;9.45;;;7.47;;
64085;SDS011;50333;47.436;21.390;2022-11-25T06:17:09;10.07;;;7.28;;
64085;SDS011;50333;47.436;21.390;2022-11-25T06:19:37;14.15;;;7.80;;
64085;SDS011;50333;47.436;21.390;2022-11-25T06:22:05;11.38;;;7.45;;
64085;SDS011;50333;47.436;21.390;2022-11-25T06:24:33;10.43;;;7.87;;
64085;SDS011;50333;47.436;21.390;2022-11-25T06:27:03;12.00;;;8.32;;
64085;SDS011;50333;47.436;21.390;2022-11-25T06:29:31;19.92;;;13.88;;
64085;SDS011;50333;47.436;21.390;2022-11-25T06:31:59;133.82;;;70.40;;
64085;SDS011;50333;47.436;21.390;2022-11-25T06:34:28;145.62;;;78.78;;
64085;SDS011;50333;47.436;21.390;2022-11-25T06:36:56;105.28;;;56.60;;
64085;SDS011;50333;47.436;21.390;2022-11-25T06:39:24;92.68;;;48.42;;
64085;SDS011;50333;47.436;21.390;2022-11-25T06:41:52;71.05;;;39.63;;
64085;SDS011;50333;47.436;21.390;2022-11-25T06:44:19;71.00;;;42.03;;
64085;SDS011;50333;47.436;21.390;2022-11-25T06:46:47;19.80;;;13.93;;
64085;SDS011;50333;47.436;21.390;2022-11-25T06:49:15;15.07;;;10.00;;
64085;SDS011;50333;47.436;21.390;2022-11-25T06:51:42;17.27;;;10.25;;
64085;SDS011;50333;47.436;21.390;2022-11-25T06:54:10;14.50;;;10.27;;
64085;SDS011;50333;47.436;21.390;2022-11-25T06:56:38;11.95;;;9.40;;
64085;SDS011;50333;47.436;21.390;2022-11-25T06:59:06;11.65;;;8.45;;
64085;SDS011;50333;47.436;21.390;2022-11-25T07:01:34;12.60;;;7.78;;
64085;SDS011;50333;47.436;21.390;2022-11-25T07:04:03;11.30;;;7.72;;
64085;SDS011;50333;47.436;21.390;2022-11-25T07:06:31;11.35;;;7.87;;
64085;SDS011;50333;47.436;21.390;2022-11-25T07:09:00;10.32;;;7.15;;
64085;SDS011;50333;47.436;21.390;2022-11-25T07:11:33;12.85;;;8.27;;
64085;SDS011;50333;47.436;21.390;2022-11-25T07:14:04;11.95;;;8.73;;
64085;SDS011;50333;47.436;21.390;2022-11-25T07:16:33;11.07;;;8.32;;
64085;SDS011;50333;47.436;21.390;2022-11-25T07:19:03;12.15;;;8.35;;
64085;SDS011;50333;47.436;21.390;2022-11-25T07:21:32;11.75;;;7.95;;
64085;SDS011;50333;47.436;21.390;2022-11-25T07:24:02;9.98;;;7.35;;
64085;SDS011;50333;47.436;21.390;2022-11-25T07:26:36;10.73;;;7.62;;
64085;SDS011;50333;47.436;21.390;2022-11-25T07:29:06;10.77;;;7.68;;
64085;SDS011;50333;47.436;21.390;2022-11-25T07:31:55;14.05;;;10.05;;
64085;SDS011;50333;47.436;21.390;2022-11-25T07:34:23;11.23;;;8.23;;
64085;SDS011;50333;47.436;21.390;2022-11-25T07:36:50;13.38;;;8.07;;
64085;SDS011;50333;47.436;21.390;2022-11-25T07:39:19;10.70;;;8.00;;
64085;SDS011;50333;47.436;21.390;2022-11-25T07:41:49;12.65;;;8.23;;
64085;SDS011;50333;47.436;21.390;2022-11-25T07:44:18;15.15;;;8.52;;
64085;SDS011;50333;47.436;21.390;2022-11-25T07:46:48;11.55;;;8.45;;
64085;SDS011;50333;47.436;21.390;2022-11-25T07:49:18;11.57;;;8.65;;
64085;SDS011;50333;47.436;21.390;2022-11-25T07:51:49;16.05;;;9.68;;
64085;SDS011;50333;47.436;21.390;2022-11-25T07:54:20;14.87;;;10.13;;
64085;SDS011;50333;47.436;21.390;2022-11-25T07:56:49;13.38;;;8.30;;
64085;SDS011;50333;47.436;21.390;2022-11-25T07:59:18;11.40;;;8.52;;
64085;SDS011;50333;47.436;21.390;2022-11-25T08:01:51;11.17;;;8.20;;
64085;SDS011;50333;47.436;21.390;2022-11-25T08:04:21;12.77;;;8.52;;
64085;SDS011;50333;47.436;21.390;2022-11-25T08:06:49;12.88;;;8.48;;
64085;SDS011;50333;47.436;21.390;2022-11-25T08:09:20;11.48;;;8.63;;
64085;SDS011;50333;47.436;21.390;2022-11-25T08:11:50;12.05;;;8.35;;
64085;SDS011;50333;47.436;21.390;2022-11-25T08:14:18;14.48;;;10.48;;
64085;SDS011;50333;47.436;21.390;2022-11-25T08:16:47;18.15;;;11.77;;
64085;SDS011;50333;47.436;21.390;2022-11-25T08:19:15;16.70;;;10.90;;
64085;SDS011;50333;47.436;21.390;2022-11-25T08:21:43;14.05;;;8.95;;
64085;SDS011;50333;47.436;21.390;2022-11-25T08:24:15;42.25;;;10.82;;
64085;SDS011;50333;47.436;21.390;2022-11-25T08:29:14;55.47;;;11.95;;
64085;SDS011;50333;47.436;21.390;2022-11-25T08:31:43;19.70;;;9.20;;
64085;SDS011;50333;47.436;21.390;2022-11-25T08:34:18;17.02;;;9.82;;
64085;SDS011;50333;47.436;21.390;2022-11-25T08:36:48;10.30;;;8.02;;
64085;SDS011;50333;47.436;21.390;2022-11-25T08:39:17;13.30;;;9.55;;
64085;SDS011;50333;47.436;21.390;2022-11-25T08:42:06;14.18;;;8.35;;
64085;SDS011;50333;47.436;21.390;2022-11-25T08:44:34;12.35;;;9.02;;
64085;SDS011;50333;47.436;21.390;2022-11-25T08:47:02;11.57;;;8.85;;
64085;SDS011;50333;47.436;21.390;2022-11-25T08:49:30;14.95;;;8.98;;
64085;SDS011;50333;47.436;21.390;2022-11-25T08:52:05;12.55;;;8.60;;
64085;SDS011;50333;47.436;21.390;2022-11-25T08:54:33;13.23;;;8.40;;
64085;SDS011;50333;47.436;21.390;2022-11-25T08:57:00;46.08;;;34.42;;
64085;SDS011;50333;47.436;21.390;2022-11-25T08:59:28;40.92;;;25.60;;
64085;SDS011;50333;47.436;21.390;2022-11-25T09:01:56;14.55;;;9.52;;
64085;SDS011;50333;47.436;21.390;2022-11-25T09:04:23;11.75;;;8.82;;
64085;SDS011;50333;47.436;21.390;2022-11-25T09:06:51;12.80;;;8.93;;
64085;SDS011;50333;47.436;21.390;2022-11-25T09:09:19;13.18;;;9.20;;
64085;SDS011;50333;47.436;21.390;2022-11-25T09:11:47;13.77;;;9.52;;
64085;SDS011;50333;47.436;21.390;2022-11-25T09:14:15;15.48;;;10.10;;
64085;SDS011;50333;47.436;21.390;2022-11-25T09:16:43;24.50;;;17.12;;
64085;SDS011;50333;47.436;21.390;2022-11-25T09:19:11;11.15;;;8.32;;
64085;SDS011;50333;47.436;21.390;2022-11-25T09:21:39;11.80;;;8.40;;
64085;SDS011;50333;47.436;21.390;2022-11-25T09:24:09;15.57;;;9.43;;
64085;SDS011;50333;47.436;21.390;2022-11-25T09:26:37;12.85;;;8.57;;
64085;SDS011;50333;47.436;21.390;2022-11-25T09:29:07;10.98;;;8.95;;
64085;SDS011;50333;47.436;21.390;2022-11-25T09:31:36;15.63;;;9.30;;
64085;SDS011;50333;47.436;21.390;2022-11-25T09:34:04;12.82;;;9.13;;
64085;SDS011;50333;47.436;21.390;2022-11-25T09:36:32;11.15;;;8.57;;
64085;SDS011;50333;47.436;21.390;2022-11-25T09:39:00;11.05;;;8.25;;
64085;SDS011;50333;47.436;21.390;2022-11-25T09:55:53;14.30;;;10.65;;
64085;SDS011;50333;47.436;21.390;2022-11-25T10:01:13;15.70;;;9.48;;
64085;SDS011;50333;47.436;21.390;2022-11-25T10:03:46;14.82;;;9.82;;
64085;SDS011;50333;47.436;21.390;2022-11-25T10:06:25;21.95;;;10.68;;
64085;SDS011;50333;47.436;21.390;2022-11-25T10:08:57;15.05;;;10.60;;
64085;SDS011;50333;47.436;21.390;2022-11-25T10:11:30;16.37;;;9.55;;
64085;SDS011;50333;47.436;21.390;2022-11-25T10:19:59;12.90;;;10.02;;
64085;SDS011;50333;47.436;21.390;2022-11-25T10:22:44;13.52;;;10.02;;
64085;SDS011;50333;47.436;21.390;2022-11-25T10:25:20;14.68;;;9.93;;
64085;SDS011;50333;47.436;21.390;2022-11-25T10:35:46;13.27;;;10.10;;
64085;SDS011;50333;47.436;21.390;2022-11-25T10:38:28;13.87;;;9.83;;
64085;SDS011;50333;47.436;21.390;2022-11-25T10:41:10;13.18;;;9.70;;
64085;SDS011;50333;47.436;21.390;2022-11-25T10:43:42;15.27;;;9.95;;
64085;SDS011;50333;47.436;21.390;2022-11-25T10:49:14;12.68;;;9.32;;
64085;SDS011;50333;47.436;21.390;2022-11-25T10:51:54;13.27;;;9.35;;
64085;SDS011;50333;47.436;21.390;2022-11-25T10:54:24;15.98;;;9.77;;
64085;SDS011;50333;47.436;21.390;2022-11-25T11:07:28;17.23;;;9.63;;
64085;SDS011;50333;47.436;21.390;2022-11-25T11:12:52;22.23;;;13.43;;
64085;SDS011;50333;47.436;21.390;2022-11-25T11:16:13;15.18;;;9.88;;
64085;SDS011;50333;47.436;21.390;2022-11-25T11:20:54;15.65;;;10.48;;
64085;SDS011;50333;47.436;21.390;2022-11-25T11:23:27;14.45;;;10.20;;
64085;SDS011;50333;47.436;21.390;2022-11-25T11:25:59;12.35;;;9.23;;
64085;SDS011;50333;47.436;21.390;2022-11-25T11:31:19;11.50;;;8.50;;
64085;SDS011;50333;47.436;21.390;2022-11-25T11:34:02;11.40;;;8.75;;
64085;SDS011;50333;47.436;21.390;2022-11-25T11:39:57;19.10;;;13.93;;
64085;SDS011;50333;47.436;21.390;2022-11-25T11:42:44;11.90;;;8.65;;
64085;SDS011;50333;47.436;21.390;2022-11-25T11:50:34;7.70;;;5.53;;
64085;SDS011;50333;47.436;21.390;2022-11-25T11:55:52;12.27;;;7.20;;
64085;SDS011;50333;47.436;21.390;2022-11-25T11:59:06;9.80;;;7.12;;
64085;SDS011;50333;47.436;21.390;2022-11-25T12:18:14;12.35;;;7.00;;
64085;SDS011;50333;47.436;21.390;2022-11-25T12:21:03;10.25;;;6.85;;
64085;SDS011;50333;47.436;21.390;2022-11-25T12:26:18;11.80;;;7.20;;
64085;SDS011;50333;47.436;21.390;2022-11-25T12:28:54;9.70;;;7.00;;
64085;SDS011;50333;47.436;21.390;2022-11-25T12:31:33;9.35;;;6.45;;
64085;SDS011;50333;47.436;21.390;2022-11-25T12:34:19;9.77;;;7.05;;
64085;SDS011;50333;47.436;21.390;2022-11-25T12:39:36;10.35;;;6.93;;
64085;SDS011;50333;47.436;21.390;2022-11-25T12:42:12;10.10;;;7.10;;
64085;SDS011;50333;47.436;21.390;2022-11-25T12:47:51;14.02;;;11.23;;
64085;SDS011;50333;47.436;21.390;2022-11-25T12:50:23;14.65;;;12.32;;
64085;SDS011;50333;47.436;21.390;2022-11-25T12:53:16;11.45;;;6.43;;
64085;SDS011;50333;47.436;21.390;2022-11-25T12:56:17;11.48;;;8.13;;
64085;SDS011;50333;47.436;21.390;2022-11-25T12:58:52;8.38;;;6.22;;
64085;SDS011;50333;47.436;21.390;2022-11-25T13:01:34;8.73;;;6.47;;
64085;SDS011;50333;47.436;21.390;2022-11-25T13:04:34;11.05;;;7.62;;
64085;SDS011;50333;47.436;21.390;2022-11-25T13:18:02;9.80;;;7.50;;
64085;SDS011;50333;47.436;21.390;2022-11-25T13:25:46;8.77;;;7.35;;
64085;SDS011;50333;47.436;21.390;2022-11-25T13:28:34;11.80;;;8.05;;
64085;SDS011;50333;47.436;21.390;2022-11-25T13:36:19;14.30;;;7.87;;
64085;SDS011;50333;47.436;21.390;2022-11-25T13:43:57;14.10;;;9.55;;
64085;SDS011;50333;47.436;21.390;2022-11-25T13:46:37;22.42;;;16.42;;
64085;SDS011;50333;47.436;21.390;2022-11-25T13:54:45;11.85;;;8.82;;
64085;SDS011;50333;47.436;21.390;2022-11-25T13:57:17;17.08;;;9.52;;
64085;SDS011;50333;47.436;21.390;2022-11-25T14:02:23;13.98;;;9.90;;
64085;SDS011;50333;47.436;21.390;2022-11-25T14:25:27;13.25;;;9.90;;
64085;SDS011;50333;47.436;21.390;2022-11-25T14:28:08;16.90;;;9.85;;
64085;SDS011;50333;47.436;21.390;2022-11-25T14:31:08;14.65;;;10.52;;
64085;SDS011;50333;47.436;21.390;2022-11-25T14:33:43;15.90;;;10.55;;
64085;SDS011;50333;47.436;21.390;2022-11-25T14:36:32;14.57;;;10.70;;
64085;SDS011;50333;47.436;21.390;2022-11-25T14:39:07;17.15;;;11.80;;
64085;SDS011;50333;47.436;21.390;2022-11-25T14:41:41;24.42;;;12.10;;
64085;SDS011;50333;47.436;21.390;2022-11-25T14:44:17;20.52;;;10.63;;
64085;SDS011;50333;47.436;21.390;2022-11-25T14:46:52;14.38;;;11.43;;
64085;SDS011;50333;47.436;21.390;2022-11-25T14:49:39;18.85;;;14.57;;
64085;SDS011;50333;47.436;21.390;2022-11-25T14:52:27;26.52;;;18.45;;
64085;SDS011;50333;47.436;21.390;2022-11-25T14:54:58;26.75;;;19.77;;
64085;SDS011;50333;47.436;21.390;2022-11-25T14:57:29;19.30;;;13.95;;
64085;SDS011;50333;47.436;21.390;2022-11-25T15:00:06;18.52;;;12.90;;
64085;SDS011;50333;47.436;21.390;2022-11-25T15:02:40;19.92;;;13.38;;
64085;SDS011;50333;47.436;21.390;2022-11-25T15:10:56;24.10;;;16.90;;
64085;SDS011;50333;47.436;21.390;2022-11-25T15:16:07;24.95;;;14.93;;
64085;SDS011;50333;47.436;21.390;2022-11-25T15:18:49;23.12;;;15.93;;
64085;SDS011;50333;47.436;21.390;2022-11-25T15:21:26;16.33;;;12.10;;
64085;SDS011;50333;47.436;21.390;2022-11-25T15:24:39;22.50;;;16.33;;
64085;SDS011;50333;47.436;21.390;2022-11-25T15:27:10;17.52;;;12.93;;
64085;SDS011;50333;47.436;21.390;2022-11-25T15:29:41;15.65;;;11.07;;
64085;SDS011;50333;47.436;21.390;2022-11-25T15:32:15;18.77;;;14.05;;
64085;SDS011;50333;47.436;21.390;2022-11-25T15:34:46;30.67;;;20.33;;
64085;SDS011;50333;47.436;21.390;2022-11-25T15:37:15;18.67;;;14.10;;
64085;SDS011;50333;47.436;21.390;2022-11-25T15:39:43;24.37;;;17.65;;
64085;SDS011;50333;47.436;21.390;2022-11-25T15:42:24;17.30;;;12.73;;
64085;SDS011;50333;47.436;21.390;2022-11-25T15:44:59;19.62;;;13.18;;
64085;SDS011;50333;47.436;21.390;2022-11-25T15:47:34;19.15;;;14.15;;
64085;SDS011;50333;47.436;21.390;2022-11-25T15:52:34;21.87;;;12.98;;
64085;SDS011;50333;47.436;21.390;2022-11-25T15:55:06;58.20;;;38.95;;
64085;SDS011;50333;47.436;21.390;2022-11-25T15:57:48;24.67;;;16.30;;
64085;SDS011;50333;47.436;21.390;2022-11-25T16:00:19;24.60;;;14.35;;
64085;SDS011;50333;47.436;21.390;2022-11-25T16:02:50;21.10;;;13.20;;
64085;SDS011;50333;47.436;21.390;2022-11-25T16:10:25;18.25;;;13.70;;
64085;SDS011;50333;47.436;21.390;2022-11-25T16:18:20;18.62;;;12.82;;
64085;SDS011;50333;47.436;21.390;2022-11-25T16:21:12;22.33;;;12.73;;
64085;SDS011;50333;47.436;21.390;2022-11-25T16:23:46;16.17;;;12.23;;
64085;SDS011;50333;47.436;21.390;2022-11-25T16:26:28;14.95;;;11.27;;
64085;SDS011;50333;47.436;21.390;2022-11-25T16:28:59;17.67;;;12.23;;
64085;SDS011;50333;47.436;21.390;2022-11-25T16:31:28;21.70;;;13.52;;
64085;SDS011;50333;47.436;21.390;2022-11-25T16:33:58;35.40;;;22.70;;
64085;SDS011;50333;47.436;21.390;2022-11-25T16:36:36;28.10;;;17.85;;
64085;SDS011;50333;47.436;21.390;2022-11-25T16:39:03;20.17;;;13.35;;
64085;SDS011;50333;47.436;21.390;2022-11-25T16:41:31;23.70;;;14.45;;
64085;SDS011;50333;47.436;21.390;2022-11-25T16:43:59;23.58;;;14.93;;
64085;SDS011;50333;47.436;21.390;2022-11-25T16:46:34;22.83;;;15.07;;
64085;SDS011;50333;47.436;21.390;2022-11-25T16:49:12;21.62;;;13.77;;
64085;SDS011;50333;47.436;21.390;2022-11-25T16:51:41;23.90;;;17.75;;
64085;SDS011;50333;47.436;21.390;2022-11-25T16:54:10;23.77;;;17.17;;
64085;SDS011;50333;47.436;21.390;2022-11-25T16:56:39;20.67;;;15.80;;
64085;SDS011;50333;47.436;21.390;2022-11-25T16:59:12;23.25;;;16.95;;
64085;SDS011;50333;47.436;21.390;2022-11-25T17:01:57;24.70;;;16.27;;
64085;SDS011;50333;47.436;21.390;2022-11-25T17:04:26;27.65;;;17.58;;
64085;SDS011;50333;47.436;21.390;2022-11-25T17:06:54;27.17;;;18.70;;
64085;SDS011;50333;47.436;21.390;2022-11-25T17:09:43;27.50;;;18.60;;
64085;SDS011;50333;47.436;21.390;2022-11-25T17:12:21;23.95;;;18.02;;
64085;SDS011;50333;47.436;21.390;2022-11-25T17:14:54;25.23;;;16.17;;
64085;SDS011;50333;47.436;21.390;2022-11-25T17:17:23;21.27;;;15.38;;
64085;SDS011;50333;47.436;21.390;2022-11-25T17:19:52;24.65;;;15.60;;
64085;SDS011;50333;47.436;21.390;2022-11-25T17:22:22;22.25;;;16.25;;
64085;SDS011;50333;47.436;21.390;2022-11-25T17:24:51;27.43;;;16.43;;
64085;SDS011;50333;47.436;21.390;2022-11-25T17:27:24;21.20;;;15.55;;
64085;SDS011;50333;47.436;21.390;2022-11-25T17:29:58;21.35;;;15.70;;
64085;SDS011;50333;47.436;21.390;2022-11-25T17:32:30;21.12;;;14.90;;
64085;SDS011;50333;47.436;21.390;2022-11-25T17:34:59;35.03;;;18.83;;
64085;SDS011;50333;47.436;21.390;2022-11-25T17:37:27;53.50;;;25.30;;
64085;SDS011;50333;47.436;21.390;2022-11-25T17:39:59;56.15;;;25.65;;
64085;SDS011;50333;47.436;21.390;2022-11-25T17:42:27;54.97;;;23.98;;